Time;durP1;ratioP1;P1;durP2;ratioP2;P2;SDS_P1;SDS_P2;PMS_P1;PMS_P2;Temp;Humidity;BMP_temperature;BMP_pressure;BME280_temperature;BME280_humidity;BME280_pressure;Samples;Min_cycle;Max_cycle;Signal;HPM_P1;HPM_P2
2022/04/23 00:01:55;;;;;;;4.90;4.40;;;9.20;99.90;;;;;;5012530;28;20699;-80
2022/04/23 00:04:21;;;;;;;5.17;4.70;;;9.10;99.90;;;;;;5011637;28;20672;-81
2022/04/23 00:06:46;;;;;;;4.47;4.07;;;9.10;99.90;;;;;;5011952;28;21161;-81
2022/04/23 00:09:12;;;;;;;5.17;4.27;;;9.00;99.90;;;;;;5030483;28;20720;-82
2022/04/23 00:11:37;;;;;;;5.33;4.50;;;8.90;99.90;;;;;;5011879;28;20248;-81
2022/04/23 00:14:04;;;;;;;4.93;4.53;;;8.90;99.90;;;;;;5029951;28;20719;-81
2022/04/23 00:16:30;;;;;;;5.27;4.77;;;8.90;99.90;;;;;;5028308;28;20179;-82
2022/04/23 00:18:58;;;;;;;4.77;4.37;;;8.80;99.90;;;;;;5028262;28;20208;-81
2022/04/23 00:21:24;;;;;;;5.77;5.03;;;8.70;99.90;;;;;;5028143;28;20209;-82
2022/04/23 00:23:50;;;;;;;4.97;4.43;;;8.70;99.90;;;;;;5029554;28;20220;-81
2022/04/23 00:26:16;;;;;;;5.50;5.00;;;8.70;99.90;;;;;;5011749;28;20171;-81
2022/04/23 00:28:42;;;;;;;5.60;5.10;;;8.60;99.90;;;;;;5011480;28;20183;-81
2022/04/23 00:31:08;;;;;;;5.07;4.57;;;8.50;99.90;;;;;;5012062;28;20227;-81
2022/04/23 00:33:37;;;;;;;5.60;5.00;;;8.50;99.90;;;;;;5011756;28;20237;-80
2022/04/23 00:36:10;;;;;;;5.30;4.47;;;8.50;99.90;;;;;;5011110;28;20210;-80
2022/04/23 00:38:40;;;;;;;5.60;5.10;;;8.40;99.90;;;;;;5011480;28;20201;-81
2022/04/23 00:41:07;;;;;;;5.93;5.30;;;8.30;99.90;;;;;;5011963;28;20198;-81
2022/04/23 00:43:36;;;;;;;5.43;4.90;;;8.30;99.90;;;;;;5029594;28;20171;-81
2022/04/23 00:46:03;;;;;;;5.50;5.00;;;8.20;99.90;;;;;;5011924;28;20245;-81
2022/04/23 00:48:29;;;;;;;6.57;5.00;;;8.20;99.90;;;;;;5027742;28;20297;-81
2022/04/23 00:50:57;;;;;;;5.67;4.77;;;8.20;99.90;;;;;;5011594;28;20293;-81
2022/04/23 00:53:24;;;;;;;6.23;5.63;;;8.30;99.90;;;;;;5011424;28;20179;-81
2022/04/23 00:55:52;;;;;;;6.43;5.33;;;8.30;99.90;;;;;;5029803;28;20206;-81
2022/04/23 00:58:18;;;;;;;6.00;5.17;;;8.30;99.90;;;;;;5028376;28;20250;-81
2022/04/23 01:00:45;;;;;;;6.17;5.40;;;8.20;99.90;;;;;;5009790;28;20203;-81
2022/04/23 01:03:12;;;;;;;6.17;5.57;;;8.10;99.90;;;;;;5011416;28;20178;-81
2022/04/23 01:05:44;;;;;;;5.70;5.10;;;8.10;99.90;;;;;;5028972;28;20200;-81
2022/04/23 01:08:12;;;;;;;6.77;6.10;;;8.10;99.90;;;;;;5010555;28;20187;-81
2022/04/23 01:10:38;;;;;;;6.60;5.83;;;8.00;99.90;;;;;;5011341;28;20202;-81
2022/04/23 01:13:04;;;;;;;6.57;5.83;;;7.90;99.90;;;;;;5010760;28;20601;-81
2022/04/23 01:15:29;;;;;;;8.00;6.00;;;7.80;99.90;;;;;;5010676;28;20289;-80
2022/04/23 01:17:55;;;;;;;7.43;6.53;;;7.90;99.90;;;;;;5010887;28;20183;-81
2022/04/23 01:20:21;;;;;;;7.73;6.37;;;7.80;99.90;;;;;;5028554;28;20210;-81
2022/04/23 01:22:46;;;;;;;7.20;6.43;;;7.90;99.90;;;;;;5010724;28;20186;-82
2022/04/23 01:25:13;;;;;;;7.00;6.30;;;7.80;99.90;;;;;;5011008;28;20598;-80
2022/04/23 01:27:41;;;;;;;7.50;6.70;;;7.80;99.90;;;;;;5028784;28;20187;-80
2022/04/23 01:30:08;;;;;;;7.13;6.43;;;7.70;99.90;;;;;;5010725;28;20230;-80
2022/04/23 01:32:34;;;;;;;7.30;6.40;;;7.70;99.90;;;;;;5028762;28;21155;-80
2022/04/23 01:34:59;;;;;;;7.93;6.67;;;7.70;99.90;;;;;;5028652;28;20194;-80
2022/04/23 01:37:25;;;;;;;7.53;6.83;;;7.70;99.90;;;;;;5010122;28;20305;-81
2022/04/23 01:39:51;;;;;;;7.07;6.33;;;7.60;99.90;;;;;;5010946;28;20193;-81
2022/04/23 01:42:18;;;;;;;7.97;7.17;;;7.60;99.90;;;;;;5027095;28;20270;-80
2022/04/23 01:44:51;;;;;;;8.27;7.30;;;7.50;99.90;;;;;;5010420;28;20202;-80
2022/04/23 01:47:17;;;;;;;8.17;7.00;;;7.50;99.90;;;;;;5010216;28;20266;-80
2022/04/23 01:49:44;;;;;;;7.97;7.17;;;7.30;99.90;;;;;;5028167;28;20265;-81
2022/04/23 01:52:10;;;;;;;8.30;7.30;;;7.30;99.90;;;;;;5026700;28;20187;-81
2022/04/23 01:54:36;;;;;;;8.67;7.77;;;7.40;99.90;;;;;;5030226;28;20199;-80
2022/04/23 01:57:02;;;;;;;8.30;7.23;;;7.40;99.90;;;;;;5031369;28;20582;-81
2022/04/23 01:59:29;;;;;;;8.33;7.53;;;7.30;99.90;;;;;;5025985;28;20183;-81
2022/04/23 02:01:56;;;;;;;8.17;7.23;;;7.30;99.90;;;;;;5026654;28;20680;-81
2022/04/23 02:04:21;;;;;;;7.83;6.93;;;7.40;99.90;;;;;;5010647;28;20191;-81
2022/04/23 02:06:47;;;;;;;7.93;7.13;;;7.30;99.90;;;;;;5010749;28;20710;-79
2022/04/23 02:09:12;;;;;;;7.80;7.00;;;7.30;99.90;;;;;;5029844;28;20624;-80
2022/04/23 02:11:38;;;;;;;8.13;7.27;;;7.30;99.90;;;;;;5012027;28;20253;-80
2022/04/23 02:14:04;;;;;;;7.93;7.03;;;7.30;99.90;;;;;;5029549;28;20716;-81
2022/04/23 02:16:31;;;;;;;8.90;7.67;;;7.30;99.90;;;;;;5011762;28;20269;-80
2022/04/23 02:18:57;;;;;;;8.30;7.40;;;7.30;99.90;;;;;;5028789;28;20258;-82
2022/04/23 02:21:24;;;;;;;7.87;7.17;;;7.30;99.90;;;;;;5010087;28;20286;-81
2022/04/23 02:23:50;;;;;;;8.33;7.43;;;7.20;99.90;;;;;;5010890;28;20248;-80
2022/04/23 02:26:15;;;;;;;8.27;7.37;;;7.30;99.90;;;;;;5027462;28;20218;-81
2022/04/23 02:28:41;;;;;;;8.10;7.13;;;7.30;99.90;;;;;;5027470;28;20750;-80
2022/04/23 02:31:07;;;;;;;7.73;7.03;;;7.30;99.90;;;;;;5029356;28;20603;-80
2022/04/23 02:33:33;;;;;;;7.67;6.87;;;7.30;99.90;;;;;;5010694;28;20179;-82
2022/04/23 02:35:59;;;;;;;7.67;6.87;;;7.30;99.90;;;;;;5028814;28;20584;-81
2022/04/23 02:38:24;;;;;;;7.47;6.67;;;7.20;99.90;;;;;;5010782;28;20179;-81
2022/04/23 02:40:50;;;;;;;8.27;7.47;;;7.20;99.90;;;;;;5011059;28;20685;-81
2022/04/23 02:43:16;;;;;;;8.30;7.40;;;7.10;99.90;;;;;;5010640;28;20240;-80
2022/04/23 02:45:41;;;;;;;8.83;7.93;;;7.10;99.90;;;;;;5028902;28;20191;-80
2022/04/23 02:48:10;;;;;;;8.20;7.33;;;7.10;99.90;;;;;;5012317;28;20290;-81
2022/04/23 02:50:37;;;;;;;8.40;7.60;;;7.10;99.90;;;;;;5010511;28;20198;-81
2022/04/23 02:53:04;;;;;;;8.50;7.13;;;7.10;99.90;;;;;;5029554;28;20236;-80
2022/04/23 02:55:32;;;;;;;8.53;7.43;;;7.00;99.90;;;;;;5010247;28;20222;-80
2022/04/23 02:58:05;;;;;;;9.27;7.47;;;7.00;99.90;;;;;;5011198;28;20267;-80
2022/04/23 03:00:31;;;;;;;9.03;7.37;;;7.10;99.90;;;;;;5010657;28;20228;-80
2022/04/23 03:02:57;;;;;;;9.07;7.40;;;7.00;99.90;;;;;;5011187;28;20203;-81
2022/04/23 03:05:23;;;;;;;8.27;7.13;;;7.00;99.90;;;;;;5028235;28;20186;-80
2022/04/23 03:07:48;;;;;;;8.80;7.90;;;7.00;99.90;;;;;;5010565;28;20577;-80
2022/04/23 03:10:16;;;;;;;8.93;7.90;;;7.10;99.90;;;;;;5010249;28;20207;-81
2022/04/23 03:12:42;;;;;;;9.63;7.30;;;7.00;99.90;;;;;;5027025;28;21243;-80
2022/04/23 03:15:10;;;;;;;8.63;7.47;;;7.00;99.90;;;;;;5010104;28;20211;-80
2022/04/23 03:17:36;;;;;;;9.73;8.17;;;7.00;99.90;;;;;;5026931;28;20194;-80
2022/04/23 03:20:06;;;;;;;9.03;7.67;;;7.00;99.90;;;;;;5027554;28;20223;-80
2022/04/23 03:22:32;;;;;;;9.03;7.63;;;7.00;99.90;;;;;;5010093;28;20653;-80
2022/04/23 03:24:57;;;;;;;9.07;7.70;;;7.00;99.90;;;;;;5028034;28;20202;-80
2022/04/23 03:27:23;;;;;;;8.13;7.27;;;7.00;99.90;;;;;;5010678;28;21114;-79
2022/04/23 03:29:49;;;;;;;8.10;7.20;;;7.00;99.90;;;;;;5028017;28;20210;-80
2022/04/23 03:32:14;;;;;;;10.33;8.00;;;7.00;99.90;;;;;;5027959;28;20186;-80
2022/04/23 03:34:40;;;;;;;8.97;8.03;;;6.90;99.90;;;;;;5009911;28;20209;-80
2022/04/23 03:37:06;;;;;;;8.63;7.40;;;6.90;99.90;;;;;;5026613;28;20881;-80
2022/04/23 03:39:33;;;;;;;8.77;7.53;;;6.90;99.90;;;;;;5008760;28;20193;-80
2022/04/23 03:42:01;;;;;;;7.67;6.87;;;6.90;99.90;;;;;;5025971;28;20591;-80
2022/04/23 03:44:26;;;;;;;8.37;7.43;;;6.80;99.90;;;;;;5008865;28;20191;-79
2022/04/23 03:46:52;;;;;;;9.10;7.17;;;6.80;99.90;;;;;;5009206;28;20601;-81
2022/04/23 03:49:18;;;;;;;9.53;7.67;;;6.80;99.90;;;;;;5008456;28;20625;-80
2022/04/23 03:51:43;;;;;;;8.77;7.47;;;6.80;99.90;;;;;;5008861;28;20307;-80
2022/04/23 03:54:09;;;;;;;9.20;7.27;;;6.80;99.90;;;;;;5026144;28;20210;-81
2022/04/23 03:56:35;;;;;;;9.47;7.80;;;6.70;99.90;;;;;;5008894;28;20198;-80
2022/04/23 03:59:00;;;;;;;9.63;7.53;;;6.70;99.90;;;;;;5008433;28;20179;-81
2022/04/23 04:01:27;;;;;;;8.47;7.40;;;6.80;99.90;;;;;;5008600;28;20238;-83
2022/04/23 04:03:52;;;;;;;8.30;7.43;;;6.70;99.90;;;;;;5007717;28;20179;-81
2022/04/23 04:06:18;;;;;;;8.40;7.60;;;6.70;99.90;;;;;;5007844;28;20186;-82
2022/04/23 04:08:44;;;;;;;8.63;7.70;;;6.70;99.90;;;;;;5007694;28;20969;-82
2022/04/23 04:11:09;;;;;;;8.27;7.00;;;6.80;99.90;;;;;;5008271;28;20205;-82
2022/04/23 04:13:36;;;;;;;8.37;7.43;;;6.70;99.90;;;;;;5025843;28;20617;-81
2022/04/23 04:16:02;;;;;;;9.53;7.47;;;6.70;99.90;;;;;;5008687;28;20226;-80
2022/04/23 04:18:27;;;;;;;9.87;8.23;;;6.70;99.90;;;;;;5007127;28;20235;-81
2022/04/23 04:20:54;;;;;;;9.20;8.17;;;6.70;99.90;;;;;;5008249;28;20207;-81
2022/04/23 04:23:20;;;;;;;8.43;7.50;;;6.70;99.90;;;;;;5007568;28;20183;-81
2022/04/23 04:25:47;;;;;;;7.80;7.00;;;6.80;99.90;;;;;;5008108;28;20575;-80
2022/04/23 04:28:13;;;;;;;8.37;7.37;;;6.80;99.90;;;;;;5023932;28;20183;-82
2022/04/23 04:33:22;;;;;;;8.93;7.60;;;6.80;99.90;;;;;;5025589;28;20582;-82
2022/04/23 04:35:48;;;;;;;8.47;7.57;;;6.80;99.90;;;;;;5010353;28;20210;-81
2022/04/23 04:38:13;;;;;;;8.43;7.53;;;6.80;99.90;;;;;;5028797;28;20179;-80
2022/04/23 04:40:39;;;;;;;10.93;8.10;;;6.80;99.90;;;;;;5013666;28;20199;-81
2022/04/23 04:43:05;;;;;;;8.60;7.70;;;6.70;99.90;;;;;;5012684;28;20718;-81
2022/04/23 04:45:30;;;;;;;10.07;7.40;;;6.70;99.90;;;;;;5012677;28;20274;-83
2022/04/23 04:47:56;;;;;;;8.80;7.67;;;6.50;99.90;;;;;;5012913;28;20772;-82
2022/04/23 04:50:23;;;;;;;8.30;7.13;;;6.60;99.90;;;;;;5031128;28;20199;-83
2022/04/23 04:52:49;;;;;;;8.57;7.60;;;6.70;99.90;;;;;;5012715;28;20194;-82
2022/04/23 04:55:15;;;;;;;9.20;7.60;;;6.80;99.90;;;;;;5011693;28;20207;-80
2022/04/23 04:57:41;;;;;;;8.93;7.90;;;7.00;99.90;;;;;;5012345;28;20202;-80
2022/04/23 05:00:07;;;;;;;8.23;7.17;;;7.60;99.90;;;;;;5012512;28;20215;-82
2022/04/23 05:02:33;;;;;;;7.57;6.77;;;8.40;99.90;;;;;;5012489;28;20183;-82
2022/04/23 05:04:58;;;;;;;8.70;6.53;;;9.20;99.90;;;;;;5030545;28;20189;-82
2022/04/23 05:07:24;;;;;;;6.40;5.77;;;9.80;99.90;;;;;;5012243;28;20198;-84
2022/04/23 05:09:50;;;;;;;7.35;6.43;;;10.40;99.90;;;;;;5011898;28;20184;-81
2022/04/23 05:12:15;;;;;;;6.80;6.10;;;11.10;99.90;;;;;;5012406;28;20672;-82
2022/04/23 05:14:41;;;;;;;7.25;6.07;;;11.30;99.90;;;;;;5012447;28;20265;-81
2022/04/23 05:17:06;;;;;;;6.32;5.65;;;11.50;99.90;;;;;;5029715;28;20622;-82
2022/04/23 05:19:32;;;;;;;6.72;6.10;;;11.90;99.90;;;;;;5012057;28;20253;-81
2022/04/23 05:21:57;;;;;;;6.93;5.95;;;12.10;99.90;;;;;;5013364;28;20210;-82
2022/04/23 05:24:24;;;;;;;6.82;6.13;;;12.30;99.90;;;;;;5032993;28;20193;-82
2022/04/23 05:26:50;;;;;;;7.68;6.57;;;12.00;99.90;;;;;;5012860;28;20198;-81
2022/04/23 05:29:16;;;;;;;6.55;5.95;;;12.10;99.90;;;;;;5011267;28;20183;-81
2022/04/23 05:31:41;;;;;;;7.78;6.25;;;12.40;99.90;;;;;;5011727;28;20297;-83
2022/04/23 05:34:07;;;;;;;6.63;6.03;;;12.30;99.90;;;;;;5010899;28;20564;-81
2022/04/23 05:36:33;;;;;;;6.75;6.05;;;12.50;99.90;;;;;;5010513;28;20191;-81
2022/04/23 05:38:58;;;;;;;6.35;5.75;;;13.00;99.90;;;;;;5009843;28;20190;-82
2022/04/23 05:41:24;;;;;;;7.07;6.38;;;13.20;99.90;;;;;;5028424;28;20269;-83
2022/04/23 05:43:50;;;;;;;7.00;6.38;;;12.80;99.90;;;;;;5027804;28;20192;-81
2022/04/23 05:46:17;;;;;;;6.65;6.05;;;13.00;99.90;;;;;;5028537;28;20182;-82
2022/04/23 05:48:43;;;;;;;7.90;6.80;;;13.30;99.90;;;;;;5010832;28;20191;-82
2022/04/23 05:51:09;;;;;;;6.53;5.88;;;13.50;99.90;;;;;;5010347;28;20253;-81
2022/04/23 05:53:34;;;;;;;7.38;6.38;;;13.50;99.90;;;;;;5009831;28;20179;-83
2022/04/23 05:56:00;;;;;;;7.47;6.35;;;13.50;99.90;;;;;;5010162;28;20632;-81
2022/04/23 05:58:26;;;;;;;7.00;6.30;;;13.50;99.90;;;;;;5009620;28;20175;-82
2022/04/23 06:00:52;;;;;;;6.72;6.03;;;13.50;99.90;;;;;;5008392;28;20234;-82
2022/04/23 06:03:18;;;;;;;7.35;6.55;;;13.50;99.90;;;;;;5027483;28;20170;-81
2022/04/23 06:05:43;;;;;;;8.23;7.13;;;13.70;99.90;;;;;;5007681;28;20598;-83
2022/04/23 06:08:09;;;;;;;7.22;6.55;;;13.70;99.90;;;;;;5026032;28;20346;-81
2022/04/23 06:10:35;;;;;;;7.40;6.70;;;13.60;99.90;;;;;;5009545;28;20207;-82
2022/04/23 06:13:01;;;;;;;7.10;6.40;;;13.60;99.90;;;;;;5013630;28;20571;-82
2022/04/23 06:15:27;;;;;;;9.00;7.57;;;14.10;99.90;;;;;;5014627;28;20207;-82
2022/04/23 06:17:52;;;;;;;9.90;7.18;;;13.90;99.90;;;;;;5013276;28;20178;-82
2022/04/23 06:20:18;;;;;;;9.20;7.65;;;13.60;99.90;;;;;;5015450;28;20206;-82
2022/04/23 06:22:43;;;;;;;8.63;7.75;;;13.50;99.90;;;;;;5012459;28;20216;-84
2022/04/23 06:25:09;;;;;;;8.63;7.70;;;13.20;99.90;;;;;;5010702;28;20268;-81
2022/04/23 06:27:36;;;;;;;9.90;8.27;;;13.20;99.90;;;;;;5008965;28;20191;-83
2022/04/23 06:30:03;;;;;;;9.45;8.55;;;12.90;99.90;;;;;;5012729;28;20194;-80
2022/04/23 06:32:29;;;;;;;9.27;8.38;;;13.10;99.90;;;;;;5014248;28;20183;-84
2022/04/23 06:34:54;;;;;;;9.48;8.52;;;12.70;99.90;;;;;;5013577;28;20640;-83
2022/04/23 06:37:20;;;;;;;9.40;8.40;;;12.30;99.90;;;;;;5013179;28;20197;-83
2022/04/23 06:39:45;;;;;;;10.52;8.27;;;11.90;99.90;;;;;;5012578;28;20593;-80
2022/04/23 06:42:11;;;;;;;9.80;8.63;;;11.60;99.90;;;;;;5014775;28;20179;-82
2022/04/23 06:44:37;;;;;;;9.85;8.80;;;11.20;99.90;;;;;;5012943;28;20597;-81
2022/04/23 06:47:03;;;;;;;10.35;8.68;;;11.00;99.90;;;;;;5028295;28;20209;-81
2022/04/23 06:49:29;;;;;;;9.67;8.67;;;10.90;99.90;;;;;;5028298;28;20198;-81
2022/04/23 06:51:55;;;;;;;9.87;8.63;;;11.00;99.90;;;;;;5025334;28;20215;-82
2022/04/23 06:54:22;;;;;;;10.23;9.10;;;11.00;99.90;;;;;;5006030;28;20762;-80
2022/04/23 06:56:48;;;;;;;9.00;7.93;;;11.00;99.90;;;;;;5012323;28;20186;-84
2022/04/23 06:59:13;;;;;;;9.90;8.87;;;11.00;99.90;;;;;;5010687;28;20218;-80
2022/04/23 07:01:40;;;;;;;9.43;8.53;;;11.10;99.90;;;;;;5011853;28;20761;-81
2022/04/23 07:04:07;;;;;;;9.10;8.20;;;11.20;99.90;;;;;;5010623;28;20190;-84
2022/04/23 07:06:33;;;;;;;9.63;8.73;;;11.20;99.90;;;;;;5010855;28;20183;-82
2022/04/23 07:08:59;;;;;;;9.20;8.37;;;11.30;99.90;;;;;;5029420;28;20253;-80
2022/04/23 07:11:25;;;;;;;8.93;8.03;;;11.20;99.90;;;;;;5032020;28;20241;-83
2022/04/23 07:13:51;;;;;;;10.40;8.67;;;11.20;99.90;;;;;;5011320;28;20226;-82
2022/04/23 07:16:17;;;;;;;9.13;8.23;;;11.20;99.90;;;;;;5028784;28;20764;-83
2022/04/23 07:18:42;;;;;;;9.63;8.50;;;11.40;99.90;;;;;;5027866;28;20245;-82
2022/04/23 07:21:08;;;;;;;9.10;8.17;;;11.50;99.90;;;;;;5028971;28;20210;-83
2022/04/23 07:26:18;;;;;;;9.18;8.27;;;11.60;99.90;;;;;;5029529;28;20616;-81
2022/04/23 07:28:44;;;;;;;8.33;7.50;;;11.60;99.90;;;;;;5011165;28;20203;-82
2022/04/23 07:31:10;;;;;;;8.63;7.83;;;11.50;99.90;;;;;;5025544;28;20210;-81
2022/04/23 07:39:03;;;;;;;8.43;7.55;;;11.60;99.90;;;;;;5027683;28;20268;-84
2022/04/23 07:41:29;;;;;;;7.45;6.72;;;11.80;99.90;;;;;;5007157;28;20643;-82
2022/04/23 07:43:56;;;;;;;7.55;6.75;;;12.00;99.90;;;;;;4987956;28;20617;-81
2022/04/23 07:46:22;;;;;;;7.55;6.85;;;12.10;99.90;;;;;;5004509;28;20293;-80
2022/04/23 07:48:47;;;;;;;8.52;6.38;;;12.20;99.90;;;;;;5023473;28;20625;-80
2022/04/23 07:51:13;;;;;;;8.35;6.68;;;12.20;99.90;;;;;;5006016;28;20210;-81
2022/04/23 07:53:38;;;;;;;7.78;6.32;;;12.20;99.90;;;;;;5003733;28;20673;-80
2022/04/23 07:56:05;;;;;;;6.38;5.78;;;12.30;99.90;;;;;;5005569;28;20218;-84
2022/04/23 07:58:30;;;;;;;7.05;6.35;;;12.40;99.90;;;;;;5024431;28;20574;-82
2022/04/23 08:00:56;;;;;;;6.30;5.70;;;12.40;99.90;;;;;;5007432;28;20203;-81
2022/04/23 08:03:22;;;;;;;6.38;5.78;;;12.50;99.90;;;;;;5024749;28;20659;-81
2022/04/23 08:05:47;;;;;;;5.47;4.97;;;12.40;99.90;;;;;;5024534;28;20626;-81
2022/04/23 08:08:17;;;;;;;6.90;5.70;;;12.50;99.90;;;;;;5022520;28;20190;-80
2022/04/23 08:10:44;;;;;;;6.00;5.40;;;12.70;99.90;;;;;;5008699;28;20210;-80
2022/04/23 08:13:10;;;;;;;8.13;5.78;;;12.70;99.90;;;;;;5027252;28;20183;-80
2022/04/23 08:15:35;;;;;;;7.78;6.03;;;12.90;99.90;;;;;;5027119;28;20623;-81
2022/04/23 08:18:01;;;;;;;9.35;5.60;;;12.90;99.90;;;;;;5027069;28;20186;-81
2022/04/23 08:20:30;;;;;;;6.00;5.07;;;13.00;99.90;;;;;;5009782;28;20206;-83
2022/04/23 08:22:56;;;;;;;6.30;5.30;;;13.10;99.90;;;;;;5007040;28;20240;-82
2022/04/23 08:25:21;;;;;;;5.38;4.88;;;13.10;99.90;;;;;;5026278;28;20198;-83
2022/04/23 08:27:49;;;;;;;5.35;4.85;;;13.00;99.90;;;;;;5009017;28;20187;-84
2022/04/23 08:32:58;;;;;;;6.40;4.40;;;13.20;99.90;;;;;;5028562;28;20197;-81
2022/04/23 08:35:24;;;;;;;4.93;4.43;;;13.30;99.90;;;;;;5027292;28;20629;-81
2022/04/23 08:37:50;;;;;;;4.50;4.07;;;13.40;99.90;;;;;;5009321;28;20198;-80
2022/04/23 08:40:16;;;;;;;5.07;4.47;;;13.40;99.90;;;;;;5027633;28;20237;-82
2022/04/23 08:42:41;;;;;;;5.10;4.38;;;13.40;99.90;;;;;;5027862;28;20214;-81
2022/04/23 08:45:10;;;;;;;5.50;4.97;;;13.40;99.90;;;;;;5009184;28;20762;-82
2022/04/23 08:47:37;;;;;;;5.10;4.60;;;13.40;99.90;;;;;;5027479;28;21023;-81
2022/04/23 08:50:05;;;;;;;4.20;3.80;;;13.40;99.90;;;;;;5028853;28;20183;-81
2022/04/23 08:52:32;;;;;;;4.40;4.00;;;13.50;99.90;;;;;;5011705;28;20186;-80
2022/04/23 08:55:02;;;;;;;4.50;4.10;;;13.60;99.90;;;;;;5007804;28;20301;-81
2022/04/23 08:57:31;;;;;;;4.95;4.40;;;13.70;99.90;;;;;;5027461;28;20182;-80
2022/04/23 08:59:57;;;;;;;5.57;4.15;;;13.70;99.90;;;;;;5029973;28;20194;-81
2022/04/23 09:02:27;;;;;;;6.40;4.72;;;13.80;99.90;;;;;;5010837;28;20641;-80
2022/04/23 09:04:56;;;;;;;5.85;5.00;;;13.80;99.90;;;;;;5010721;28;20191;-79
2022/04/23 09:07:25;;;;;;;4.85;4.35;;;13.90;99.90;;;;;;5010690;28;20198;-80
2022/04/23 09:09:55;;;;;;;4.60;4.20;;;13.90;99.90;;;;;;5011002;28;20214;-84
2022/04/23 09:12:24;;;;;;;4.97;4.45;;;13.90;99.90;;;;;;5011436;28;20272;-81
2022/04/23 09:15:03;;;;;;;4.60;4.20;;;13.90;99.90;;;;;;5009239;28;20273;-80
2022/04/23 09:25:47;;;;;;;4.65;4.25;;;14.20;99.90;;;;;;5025661;28;20229;-80
2022/04/23 09:28:20;;;;;;;4.90;3.92;;;14.40;99.90;;;;;;5007199;28;20673;-80
2022/04/23 09:30:50;;;;;;;4.55;4.15;;;14.40;99.90;;;;;;5026047;28;20207;-80
2022/04/23 09:33:17;;;;;;;4.80;4.30;;;14.60;99.90;;;;;;5007822;28;20179;-81
2022/04/23 09:35:59;;;;;;;5.13;4.05;;;14.50;99.90;;;;;;5007806;28;20257;-81
2022/04/23 09:38:27;;;;;;;5.63;4.55;;;14.60;99.90;;;;;;5007176;28;20680;-81
2022/04/23 09:40:57;;;;;;;4.82;3.72;;;14.60;99.90;;;;;;5009203;28;20215;-80
2022/04/23 09:43:31;;;;;;;6.20;4.00;;;14.70;99.90;;;;;;5026996;28;20185;-82
2022/04/23 09:46:10;;;;;;;6.80;4.38;;;14.80;99.30;;;;;;5025513;28;20186;-82
2022/04/23 09:48:38;;;;;;;4.88;4.18;;;14.80;98.70;;;;;;5026965;28;20177;-81
2022/04/23 09:51:05;;;;;;;4.35;3.88;;;14.90;99.10;;;;;;5009310;28;20788;-82
2022/04/23 09:53:31;;;;;;;4.70;4.18;;;15.00;98.10;;;;;;5027283;28;20187;-82
2022/04/23 09:56:00;;;;;;;4.10;3.70;;;14.80;98.40;;;;;;5027280;28;20568;-80
2022/04/23 09:58:29;;;;;;;4.53;4.13;;;14.80;98.40;;;;;;5008876;28;20186;-81
2022/04/23 10:00:56;;;;;;;4.90;4.45;;;15.00;99.10;;;;;;5009430;28;20206;-81
2022/04/23 10:03:32;;;;;;;5.20;4.35;;;15.10;98.50;;;;;;5008396;28;20191;-81
2022/04/23 10:06:00;;;;;;;4.32;3.92;;;15.20;98.30;;;;;;5008626;28;20481;-81
2022/04/23 10:08:30;;;;;;;5.88;4.63;;;15.30;99.10;;;;;;5026490;28;20527;-83
2022/04/23 10:11:14;;;;;;;4.65;4.20;;;15.40;98.80;;;;;;5008319;28;20259;-80
2022/04/23 10:13:44;;;;;;;8.98;4.63;;;15.50;99.30;;;;;;5026773;28;20339;-81
2022/04/23 10:16:10;;;;;;;4.63;4.20;;;15.50;97.10;;;;;;5027254;28;20745;-82
2022/04/23 10:18:39;;;;;;;5.68;4.07;;;15.60;98.40;;;;;;5008812;28;20224;-83
2022/04/23 10:21:10;;;;;;;4.07;3.67;;;15.60;96.50;;;;;;5009373;28;20199;-83
2022/04/23 10:23:46;;;;;;;3.72;3.33;;;15.50;95.50;;;;;;5008669;28;20175;-81
2022/04/23 10:26:34;;;;;;;4.70;3.88;;;15.40;96.60;;;;;;5008756;28;20186;-81
2022/04/23 10:29:09;;;;;;;4.03;3.67;;;15.50;95.30;;;;;;5008644;28;20232;-81
2022/04/23 10:31:35;;;;;;;3.80;3.40;;;15.80;97.30;;;;;;5027001;28;20229;-81
2022/04/23 10:34:01;;;;;;;5.95;3.92;;;15.80;94.80;;;;;;5009063;28;20206;-79
2022/04/23 10:36:27;;;;;;;4.28;3.88;;;15.90;95.70;;;;;;5011541;28;20223;-79
2022/04/23 10:39:18;;;;;;;5.38;4.10;;;15.80;95.10;;;;;;5024944;28;20591;-82
2022/04/23 10:41:44;;;;;;;5.03;4.53;;;16.00;94.60;;;;;;5026167;28;20247;-83
2022/04/23 10:44:11;;;;;;;5.25;4.32;;;16.20;94.80;;;;;;5007973;28;20727;-85
2022/04/23 10:46:45;;;;;;;5.50;4.93;;;16.30;95.40;;;;;;5008415;28;20183;-85
2022/04/23 10:49:22;;;;;;;5.07;4.47;;;16.00;94.60;;;;;;5025248;28;20182;-83
2022/04/23 10:51:58;;;;;;;6.70;4.22;;;16.00;94.30;;;;;;5008174;28;20249;-85
2022/04/23 10:54:39;;;;;;;5.00;4.47;;;16.10;94.90;;;;;;5007065;28;20232;-82
2022/04/23 10:57:09;;;;;;;4.57;4.10;;;16.10;95.20;;;;;;5006566;28;20221;-83
2022/04/23 10:59:38;;;;;;;4.60;4.20;;;16.30;95.90;;;;;;5006753;28;20175;-85
2022/04/23 11:02:19;;;;;;;4.63;4.07;;;16.40;94.50;;;;;;5007131;28;20601;-86
2022/04/23 11:13:34;;;;;;;3.58;3.28;;;16.50;92.30;;;;;;5027571;28;20289;-87
2022/04/23 11:16:18;;;;;;;3.78;3.47;;;16.50;91.90;;;;;;5010823;28;20210;-84
2022/04/23 11:18:54;;;;;;;3.40;3.10;;;16.50;91.30;;;;;;5009733;28;20179;-82
2022/04/23 11:21:23;;;;;;;4.57;3.55;;;16.60;92.50;;;;;;5009787;28;20202;-85
2022/04/23 11:23:49;;;;;;;3.78;3.38;;;16.80;91.80;;;;;;5025649;28;20182;-82
2022/04/23 11:26:18;;;;;;;3.60;3.30;;;16.90;91.20;;;;;;5026795;28;20183;-82
2022/04/23 11:28:56;;;;;;;3.65;3.35;;;17.00;90.80;;;;;;5008516;28;20839;-82
2022/04/23 11:31:21;;;;;;;4.75;3.63;;;16.90;91.20;;;;;;5026577;28;20217;-83
2022/04/23 11:33:54;;;;;;;2.95;2.67;;;17.20;92.00;;;;;;5025525;28;20186;-83
2022/04/23 11:36:26;;;;;;;3.08;2.88;;;17.30;90.80;;;;;;5026979;28;20840;-82
2022/04/23 11:38:52;;;;;;;5.10;3.22;;;17.30;90.00;;;;;;5010064;28;20217;-83
2022/04/23 11:41:33;;;;;;;3.75;3.35;;;17.40;88.40;;;;;;5008635;28;20199;-85
2022/04/23 11:44:20;;;;;;;4.50;3.58;;;17.40;87.10;;;;;;5023483;28;20180;-82
2022/04/23 11:46:51;;;;;;;3.00;2.80;;;17.30;88.10;;;;;;5008582;28;20182;-81
2022/04/23 11:49:29;;;;;;;3.22;3.03;;;17.20;87.60;;;;;;5007648;28;20182;-82
2022/04/23 11:52:05;;;;;;;3.33;3.03;;;17.30;86.30;;;;;;5008260;28;20260;-84
2022/04/23 11:54:33;;;;;;;4.05;3.15;;;17.30;86.90;;;;;;5026137;28;20202;-82
2022/04/23 11:56:58;;;;;;;3.13;2.90;;;17.30;87.20;;;;;;5007846;28;20258;-83
2022/04/23 11:59:24;;;;;;;3.20;2.88;;;17.40;87.70;;;;;;5006039;28;20278;-87
2022/04/23 12:01:50;;;;;;;3.45;2.95;;;17.40;83.60;;;;;;5023343;28;20798;-83
2022/04/23 12:04:15;;;;;;;3.05;2.80;;;17.40;85.90;;;;;;5005557;28;20636;-84
2022/04/23 12:06:44;;;;;;;3.00;2.60;;;17.40;85.70;;;;;;5005321;28;20221;-85
2022/04/23 12:09:11;;;;;;;3.45;3.15;;;17.50;87.40;;;;;;5021108;28;20190;-83
2022/04/23 12:11:37;;;;;;;2.60;2.40;;;17.50;84.50;;;;;;5005775;28;20517;-87
2022/04/23 12:14:03;;;;;;;3.72;3.30;;;17.50;84.80;;;;;;5005538;28;20572;-82
2022/04/23 12:16:34;;;;;;;2.70;2.50;;;17.60;82.90;;;;;;5005693;28;20514;-83
2022/04/23 12:19:01;;;;;;;2.53;2.33;;;17.70;84.20;;;;;;5024557;28;20178;-82
2022/04/23 12:21:27;;;;;;;3.15;2.88;;;17.70;82.10;;;;;;5022332;28;20199;-85
2022/04/23 12:23:53;;;;;;;2.88;2.40;;;17.70;81.00;;;;;;5004375;28;20187;-83
2022/04/23 12:26:21;;;;;;;3.00;2.70;;;17.60;80.40;;;;;;5004968;28;20252;-83
2022/04/23 12:42:30;;;;;;;3.42;3.13;;;17.80;83.70;;;;;;5025892;28;20346;-84
2022/04/23 12:44:56;;;;;;;3.55;3.22;;;17.90;83.70;;;;;;5024572;28;20602;-84
2022/04/23 12:47:34;;;;;;;3.13;2.88;;;18.00;84.70;;;;;;5025589;28;20191;-85
2022/04/23 12:50:03;;;;;;;3.75;3.45;;;18.10;81.90;;;;;;5007477;28;20190;-85
2022/04/23 12:52:32;;;;;;;6.03;5.10;;;17.80;83.10;;;;;;5008237;28;20206;-85
2022/04/23 12:55:21;;;;;;;3.05;2.85;;;17.90;82.60;;;;;;5007524;28;20199;-85
2022/04/23 12:57:48;;;;;;;3.47;2.75;;;18.00;81.50;;;;;;5010473;28;20229;-87
2022/04/23 13:00:38;;;;;;;2.85;2.60;;;18.10;81.30;;;;;;5028644;28;20486;-85
2022/04/23 13:05:47;;;;;;;2.58;2.38;;;17.90;76.90;;;;;;5029661;28;20182;-85
2022/04/23 13:11:24;;;;;;;2.90;2.70;;;18.30;79.00;;;;;;5029027;28;20213;-84
2022/04/23 13:13:46;;;;;;;3.80;2.85;;;18.40;80.20;;;;;;5028273;28;20187;-84
2022/04/23 13:16:11;;;;;;;5.47;2.90;;;18.10;78.40;;;;;;5032109;28;20203;-85
2022/04/23 13:18:37;;;;;;;3.63;3.15;;;18.00;80.50;;;;;;5011569;28;20182;-87
2022/04/23 13:21:05;;;;;;;2.97;2.72;;;17.90;78.80;;;;;;5029179;28;20875;-84
2022/04/23 13:23:31;;;;;;;4.43;2.85;;;17.90;81.10;;;;;;5010348;28;20281;-86
2022/04/23 13:25:57;;;;;;;2.70;2.50;;;17.60;76.30;;;;;;5010693;28;20187;-86
2022/04/23 13:28:23;;;;;;;2.88;2.67;;;17.60;78.60;;;;;;5009891;28;20190;-85
2022/04/23 13:30:49;;;;;;;3.30;2.90;;;17.50;80.10;;;;;;5010164;28;20211;-84
2022/04/23 13:33:14;;;;;;;3.55;3.25;;;17.70;79.50;;;;;;5008899;28;20190;-84
2022/04/23 13:35:40;;;;;;;3.25;2.95;;;18.10;79.20;;;;;;5010805;28;20209;-84
2022/04/23 13:38:08;;;;;;;3.78;3.47;;;17.90;78.10;;;;;;5028207;28;20691;-84
2022/04/23 13:40:34;;;;;;;3.00;2.70;;;18.00;77.30;;;;;;5009743;28;20233;-84
2022/04/23 13:43:00;;;;;;;3.40;2.88;;;17.90;76.70;;;;;;5010804;28;20613;-84